sensor_id;sensor_type;location;lat;lon;timestamp;temperature;humidity
71047;SHT31;58703;48.978;8.982;2023-07-08T00:00:17;17.45;68.70
71047;SHT31;58703;48.978;8.982;2023-07-08T00:02:43;17.50;69.88
71047;SHT31;58703;48.978;8.982;2023-07-08T00:05:14;17.33;69.44
71047;SHT31;58703;48.978;8.982;2023-07-08T00:07:41;17.23;69.45
71047;SHT31;58703;48.978;8.982;2023-07-08T00:10:21;17.14;70.80
71047;SHT31;58703;48.978;8.982;2023-07-08T00:12:50;17.07;70.57
71047;SHT31;58703;48.978;8.982;2023-07-08T00:15:16;16.89;71.00
71047;SHT31;58703;48.978;8.982;2023-07-08T00:17:43;16.87;71.78
71047;SHT31;58703;48.978;8.982;2023-07-08T00:20:21;16.67;72.09
71047;SHT31;58703;48.978;8.982;2023-07-08T00:22:49;16.56;73.51
71047;SHT31;58703;48.978;8.982;2023-07-08T00:25:19;16.34;74.59
71047;SHT31;58703;48.978;8.982;2023-07-08T00:27:46;16.24;74.92
71047;SHT31;58703;48.978;8.982;2023-07-08T00:32:52;16.41;68.80
71047;SHT31;58703;48.978;8.982;2023-07-08T00:35:35;16.39;71.44
71047;SHT31;58703;48.978;8.982;2023-07-08T00:38:04;16.53;72.70
71047;SHT31;58703;48.978;8.982;2023-07-08T00:40:49;16.50;72.92
71047;SHT31;58703;48.978;8.982;2023-07-08T00:43:16;16.63;73.38
71047;SHT31;58703;48.978;8.982;2023-07-08T00:45:46;16.50;73.63
71047;SHT31;58703;48.978;8.982;2023-07-08T00:48:33;16.37;74.40
71047;SHT31;58703;48.978;8.982;2023-07-08T00:50:59;16.24;74.63
71047;SHT31;58703;48.978;8.982;2023-07-08T00:53:29;16.24;74.04
71047;SHT31;58703;48.978;8.982;2023-07-08T00:55:59;16.13;74.71
71047;SHT31;58703;48.978;8.982;2023-07-08T00:58:32;16.14;75.18
71047;SHT31;58703;48.978;8.982;2023-07-08T01:00:59;15.92;76.08
71047;SHT31;58703;48.978;8.982;2023-07-08T01:03:27;15.68;77.03
71047;SHT31;58703;48.978;8.982;2023-07-08T01:05:56;15.62;77.15
71047;SHT31;58703;48.978;8.982;2023-07-08T01:08:28;15.59;77.00
71047;SHT31;58703;48.978;8.982;2023-07-08T01:11:00;15.63;75.07
71047;SHT31;58703;48.978;8.982;2023-07-08T01:13:35;15.68;75.95
71047;SHT31;58703;48.978;8.982;2023-07-08T01:16:02;15.66;76.09
71047;SHT31;58703;48.978;8.982;2023-07-08T01:18:28;15.70;76.36
71047;SHT31;58703;48.978;8.982;2023-07-08T01:20:54;15.65;76.99
71047;SHT31;58703;48.978;8.982;2023-07-08T01:23:21;15.61;76.78
71047;SHT31;58703;48.978;8.982;2023-07-08T01:25:47;15.52;75.73
71047;SHT31;58703;48.978;8.982;2023-07-08T01:28:15;15.42;76.75
71047;SHT31;58703;48.978;8.982;2023-07-08T01:30:42;15.35;78.16
71047;SHT31;58703;48.978;8.982;2023-07-08T01:33:15;15.25;77.31
71047;SHT31;58703;48.978;8.982;2023-07-08T01:35:42;15.12;77.56
71047;SHT31;58703;48.978;8.982;2023-07-08T01:38:10;15.17;78.19
71047;SHT31;58703;48.978;8.982;2023-07-08T01:40:39;15.27;78.29
71047;SHT31;58703;48.978;8.982;2023-07-08T01:43:12;15.28;78.12
71047;SHT31;58703;48.978;8.982;2023-07-08T01:45:41;15.17;77.38
71047;SHT31;58703;48.978;8.982;2023-07-08T01:48:11;15.07;79.16
71047;SHT31;58703;48.978;8.982;2023-07-08T01:50:39;15.05;79.19
71047;SHT31;58703;48.978;8.982;2023-07-08T01:53:15;15.04;78.69
71047;SHT31;58703;48.978;8.982;2023-07-08T01:55:41;14.81;80.56
71047;SHT31;58703;48.978;8.982;2023-07-08T01:58:06;14.73;80.26
71047;SHT31;58703;48.978;8.982;2023-07-08T02:00:33;14.77;79.33
71047;SHT31;58703;48.978;8.982;2023-07-08T02:02:59;14.88;79.68
71047;SHT31;58703;48.978;8.982;2023-07-08T02:05:26;14.83;78.89
71047;SHT31;58703;48.978;8.982;2023-07-08T02:07:51;14.79;79.52
71047;SHT31;58703;48.978;8.982;2023-07-08T02:10:17;14.76;79.41
71047;SHT31;58703;48.978;8.982;2023-07-08T02:12:42;14.69;80.02
71047;SHT31;58703;48.978;8.982;2023-07-08T02:15:09;14.46;80.45
71047;SHT31;58703;48.978;8.982;2023-07-08T02:17:36;14.36;80.70
71047;SHT31;58703;48.978;8.982;2023-07-08T02:20:01;14.42;78.83
71047;SHT31;58703;48.978;8.982;2023-07-08T02:22:27;14.30;82.07
71047;SHT31;58703;48.978;8.982;2023-07-08T02:24:53;14.32;82.05
71047;SHT31;58703;48.978;8.982;2023-07-08T02:27:18;14.52;81.48
71047;SHT31;58703;48.978;8.982;2023-07-08T02:29:44;14.73;80.13
71047;SHT31;58703;48.978;8.982;2023-07-08T02:32:11;14.94;78.56
71047;SHT31;58703;48.978;8.982;2023-07-08T02:34:37;14.85;77.82
71047;SHT31;58703;48.978;8.982;2023-07-08T02:37:03;14.84;77.87
71047;SHT31;58703;48.978;8.982;2023-07-08T02:39:29;14.69;78.34
71047;SHT31;58703;48.978;8.982;2023-07-08T02:41:54;14.56;81.66
71047;SHT31;58703;48.978;8.982;2023-07-08T02:44:20;14.55;81.88
71047;SHT31;58703;48.978;8.982;2023-07-08T02:46:45;14.39;81.54
71047;SHT31;58703;48.978;8.982;2023-07-08T02:49:12;14.22;82.15
71047;SHT31;58703;48.978;8.982;2023-07-08T02:51:38;14.13;83.17
71047;SHT31;58703;48.978;8.982;2023-07-08T02:54:03;13.97;83.88
71047;SHT31;58703;48.978;8.982;2023-07-08T02:56:30;13.83;84.06
71047;SHT31;58703;48.978;8.982;2023-07-08T02:58:56;13.88;83.19
71047;SHT31;58703;48.978;8.982;2023-07-08T03:01:21;13.99;83.29
71047;SHT31;58703;48.978;8.982;2023-07-08T03:03:50;13.99;83.49
71047;SHT31;58703;48.978;8.982;2023-07-08T03:06:17;14.01;83.46
71047;SHT31;58703;48.978;8.982;2023-07-08T03:08:43;13.92;84.06
71047;SHT31;58703;48.978;8.982;2023-07-08T03:11:09;13.94;83.97
71047;SHT31;58703;48.978;8.982;2023-07-08T03:13:35;14.01;83.99
71047;SHT31;58703;48.978;8.982;2023-07-08T03:16:02;14.11;82.35
71047;SHT31;58703;48.978;8.982;2023-07-08T03:18:28;14.19;81.71
71047;SHT31;58703;48.978;8.982;2023-07-08T03:20:56;14.15;82.60
71047;SHT31;58703;48.978;8.982;2023-07-08T03:23:22;14.30;82.27
71047;SHT31;58703;48.978;8.982;2023-07-08T03:25:49;14.40;82.39
71047;SHT31;58703;48.978;8.982;2023-07-08T03:28:14;14.52;82.26
71047;SHT31;58703;48.978;8.982;2023-07-08T03:30:41;14.46;81.73
71047;SHT31;58703;48.978;8.982;2023-07-08T03:33:07;14.53;81.81
71047;SHT31;58703;48.978;8.982;2023-07-08T03:35:34;14.39;82.24
71047;SHT31;58703;48.978;8.982;2023-07-08T03:38:00;14.28;81.85
71047;SHT31;58703;48.978;8.982;2023-07-08T03:40:27;14.02;83.40
71047;SHT31;58703;48.978;8.982;2023-07-08T03:42:53;13.81;84.17
71047;SHT31;58703;48.978;8.982;2023-07-08T03:45:18;13.81;83.61
71047;SHT31;58703;48.978;8.982;2023-07-08T03:47:44;13.85;84.03
71047;SHT31;58703;48.978;8.982;2023-07-08T03:50:18;14.11;83.52
71047;SHT31;58703;48.978;8.982;2023-07-08T03:52:46;14.26;82.63
71047;SHT31;58703;48.978;8.982;2023-07-08T03:55:12;14.44;81.81
71047;SHT31;58703;48.978;8.982;2023-07-08T03:57:38;14.50;81.67
71047;SHT31;58703;48.978;8.982;2023-07-08T04:00:04;14.46;82.12
71047;SHT31;58703;48.978;8.982;2023-07-08T04:02:34;14.11;84.14
71047;SHT31;58703;48.978;8.982;2023-07-08T04:05:01;14.32;83.08
71047;SHT31;58703;48.978;8.982;2023-07-08T04:07:28;14.43;83.26
71047;SHT31;58703;48.978;8.982;2023-07-08T04:09:53;14.60;82.44
71047;SHT31;58703;48.978;8.982;2023-07-08T04:12:19;14.50;82.31
71047;SHT31;58703;48.978;8.982;2023-07-08T04:14:45;14.49;82.64
71047;SHT31;58703;48.978;8.982;2023-07-08T04:17:11;14.73;81.56
71047;SHT31;58703;48.978;8.982;2023-07-08T04:19:37;14.77;81.37
71047;SHT31;58703;48.978;8.982;2023-07-08T04:22:05;15.05;80.20
71047;SHT31;58703;48.978;8.982;2023-07-08T04:24:32;15.48;79.49
71047;SHT31;58703;48.978;8.982;2023-07-08T04:26:58;15.76;78.17
71047;SHT31;58703;48.978;8.982;2023-07-08T04:29:24;15.92;77.21
71047;SHT31;58703;48.978;8.982;2023-07-08T04:31:50;16.14;76.29
71047;SHT31;58703;48.978;8.982;2023-07-08T04:34:16;16.31;74.90
71047;SHT31;58703;48.978;8.982;2023-07-08T04:36:44;16.39;75.34
71047;SHT31;58703;48.978;8.982;2023-07-08T04:39:11;16.37;74.59
71047;SHT31;58703;48.978;8.982;2023-07-08T04:41:39;16.44;74.85
71047;SHT31;58703;48.978;8.982;2023-07-08T04:44:08;16.58;74.75
71047;SHT31;58703;48.978;8.982;2023-07-08T04:46:40;16.74;74.45
71047;SHT31;58703;48.978;8.982;2023-07-08T04:49:08;16.87;74.50
71047;SHT31;58703;48.978;8.982;2023-07-08T04:51:40;17.00;74.38
71047;SHT31;58703;48.978;8.982;2023-07-08T04:54:09;17.09;74.12
71047;SHT31;58703;48.978;8.982;2023-07-08T04:56:41;17.14;72.51
71047;SHT31;58703;48.978;8.982;2023-07-08T04:59:09;17.19;72.41
71047;SHT31;58703;48.978;8.982;2023-07-08T05:01:37;17.35;71.33
71047;SHT31;58703;48.978;8.982;2023-07-08T05:04:05;17.66;70.49
71047;SHT31;58703;48.978;8.982;2023-07-08T05:06:33;18.14;68.88
71047;SHT31;58703;48.978;8.982;2023-07-08T05:09:01;18.25;67.55
71047;SHT31;58703;48.978;8.982;2023-07-08T05:11:29;18.45;67.40
71047;SHT31;58703;48.978;8.982;2023-07-08T05:13:57;18.56;67.16
71047;SHT31;58703;48.978;8.982;2023-07-08T05:16:24;18.28;67.13
71047;SHT31;58703;48.978;8.982;2023-07-08T05:18:51;18.34;66.99
71047;SHT31;58703;48.978;8.982;2023-07-08T05:21:18;18.66;66.02
71047;SHT31;58703;48.978;8.982;2023-07-08T05:23:45;18.75;65.90
71047;SHT31;58703;48.978;8.982;2023-07-08T05:26:12;18.58;64.90
71047;SHT31;58703;48.978;8.982;2023-07-08T05:28:38;18.59;64.46
71047;SHT31;58703;48.978;8.982;2023-07-08T05:31:05;18.71;65.30
71047;SHT31;58703;48.978;8.982;2023-07-08T05:33:32;18.79;63.69
71047;SHT31;58703;48.978;8.982;2023-07-08T05:35:58;19.19;62.68
71047;SHT31;58703;48.978;8.982;2023-07-08T05:38:26;19.73;63.16
71047;SHT31;58703;48.978;8.982;2023-07-08T05:40:58;19.95;65.35
71047;SHT31;58703;48.978;8.982;2023-07-08T05:43:26;19.95;64.19
71047;SHT31;58703;48.978;8.982;2023-07-08T05:45:58;20.33;62.35
71047;SHT31;58703;48.978;8.982;2023-07-08T05:48:24;20.46;61.26
71047;SHT31;58703;48.978;8.982;2023-07-08T05:50:49;21.06;59.74
71047;SHT31;58703;48.978;8.982;2023-07-08T05:53:18;21.41;59.21
71047;SHT31;58703;48.978;8.982;2023-07-08T05:55:44;21.43;59.58
71047;SHT31;58703;48.978;8.982;2023-07-08T05:58:11;21.57;58.13
71047;SHT31;58703;48.978;8.982;2023-07-08T06:00:41;21.53;58.82
71047;SHT31;58703;48.978;8.982;2023-07-08T06:03:07;21.68;58.23
71047;SHT31;58703;48.978;8.982;2023-07-08T06:05:34;21.38;58.88
71047;SHT31;58703;48.978;8.982;2023-07-08T06:08:01;21.48;58.66
71047;SHT31;58703;48.978;8.982;2023-07-08T06:10:26;21.22;60.37
71047;SHT31;58703;48.978;8.982;2023-07-08T06:12:52;20.83;61.43
71047;SHT31;58703;48.978;8.982;2023-07-08T06:15:19;20.61;60.91
71047;SHT31;58703;48.978;8.982;2023-07-08T06:17:44;20.68;61.43
71047;SHT31;58703;48.978;8.982;2023-07-08T06:20:10;21.08;59.91
71047;SHT31;58703;48.978;8.982;2023-07-08T06:22:35;21.44;58.29
71047;SHT31;58703;48.978;8.982;2023-07-08T06:25:01;22.06;59.14
71047;SHT31;58703;48.978;8.982;2023-07-08T06:27:26;22.69;56.75
71047;SHT31;58703;48.978;8.982;2023-07-08T06:29:54;23.62;55.25
71047;SHT31;58703;48.978;8.982;2023-07-08T06:32:20;23.95;52.92
71047;SHT31;58703;48.978;8.982;2023-07-08T06:34:45;24.20;49.81
71047;SHT31;58703;48.978;8.982;2023-07-08T06:37:11;24.14;49.20
71047;SHT31;58703;48.978;8.982;2023-07-08T06:39:36;24.22;49.76
71047;SHT31;58703;48.978;8.982;2023-07-08T06:42:02;24.40;47.83
71047;SHT31;58703;48.978;8.982;2023-07-08T06:44:27;24.83;47.61
71047;SHT31;58703;48.978;8.982;2023-07-08T06:46:54;24.41;48.55
71047;SHT31;58703;48.978;8.982;2023-07-08T06:49:20;25.45;46.23
71047;SHT31;58703;48.978;8.982;2023-07-08T06:51:45;26.48;43.67
71047;SHT31;58703;48.978;8.982;2023-07-08T06:54:11;26.74;43.61
71047;SHT31;58703;48.978;8.982;2023-07-08T06:56:38;27.16;42.37
71047;SHT31;58703;48.978;8.982;2023-07-08T06:59:05;27.39;41.44
71047;SHT31;58703;48.978;8.982;2023-07-08T07:01:32;28.31;40.73
71047;SHT31;58703;48.978;8.982;2023-07-08T07:03:59;27.54;41.41
71047;SHT31;58703;48.978;8.982;2023-07-08T07:06:26;28.15;41.60
71047;SHT31;58703;48.978;8.982;2023-07-08T07:08:52;28.64;40.11
71047;SHT31;58703;48.978;8.982;2023-07-08T07:11:17;27.97;41.36
71047;SHT31;58703;48.978;8.982;2023-07-08T07:13:45;27.74;42.66
71047;SHT31;58703;48.978;8.982;2023-07-08T07:16:11;28.41;40.90
71047;SHT31;58703;48.978;8.982;2023-07-08T07:18:38;28.86;41.21
71047;SHT31;58703;48.978;8.982;2023-07-08T07:21:03;29.16;41.87
71047;SHT31;58703;48.978;8.982;2023-07-08T07:23:29;28.62;41.20
71047;SHT31;58703;48.978;8.982;2023-07-08T07:25:55;28.48;42.75
71047;SHT31;58703;48.978;8.982;2023-07-08T07:28:20;28.55;43.55
71047;SHT31;58703;48.978;8.982;2023-07-08T07:30:46;28.18;44.78
71047;SHT31;58703;48.978;8.982;2023-07-08T07:33:13;28.44;45.12
71047;SHT31;58703;48.978;8.982;2023-07-08T07:35:45;28.38;44.84
71047;SHT31;58703;48.978;8.982;2023-07-08T07:38:14;28.28;45.47
71047;SHT31;58703;48.978;8.982;2023-07-08T07:40:40;28.37;45.82
71047;SHT31;58703;48.978;8.982;2023-07-08T07:43:07;26.91;46.61
71047;SHT31;58703;48.978;8.982;2023-07-08T07:45:32;26.61;47.92
71047;SHT31;58703;48.978;8.982;2023-07-08T07:47:59;26.95;48.26
71047;SHT31;58703;48.978;8.982;2023-07-08T07:50:26;27.49;46.99
71047;SHT31;58703;48.978;8.982;2023-07-08T07:52:52;27.80;46.12
71047;SHT31;58703;48.978;8.982;2023-07-08T07:55:18;27.73;47.23
71047;SHT31;58703;48.978;8.982;2023-07-08T07:57:43;28.42;46.06
71047;SHT31;58703;48.978;8.982;2023-07-08T08:00:11;28.80;44.79
71047;SHT31;58703;48.978;8.982;2023-07-08T08:02:37;28.76;44.95
71047;SHT31;58703;48.978;8.982;2023-07-08T08:05:04;28.54;45.83
71047;SHT31;58703;48.978;8.982;2023-07-08T08:07:30;29.26;43.87
71047;SHT31;58703;48.978;8.982;2023-07-08T08:09:57;29.06;44.77
71047;SHT31;58703;48.978;8.982;2023-07-08T08:12:23;29.51;43.79
71047;SHT31;58703;48.978;8.982;2023-07-08T08:14:50;29.17;44.20
71047;SHT31;58703;48.978;8.982;2023-07-08T08:17:16;29.19;43.81
71047;SHT31;58703;48.978;8.982;2023-07-08T08:19:42;29.53;43.63
71047;SHT31;58703;48.978;8.982;2023-07-08T08:22:08;30.11;42.43
71047;SHT31;58703;48.978;8.982;2023-07-08T08:24:34;30.01;42.99
71047;SHT31;58703;48.978;8.982;2023-07-08T08:26:59;30.62;42.59
71047;SHT31;58703;48.978;8.982;2023-07-08T08:29:25;30.45;41.40
71047;SHT31;58703;48.978;8.982;2023-07-08T08:31:51;30.63;41.58
71047;SHT31;58703;48.978;8.982;2023-07-08T08:34:16;30.36;41.85
71047;SHT31;58703;48.978;8.982;2023-07-08T08:36:42;31.04;40.94
71047;SHT31;58703;48.978;8.982;2023-07-08T08:39:09;31.88;40.67
71047;SHT31;58703;48.978;8.982;2023-07-08T08:41:37;31.19;40.30
71047;SHT31;58703;48.978;8.982;2023-07-08T08:44:05;31.35;40.50
71047;SHT31;58703;48.978;8.982;2023-07-08T08:49:13;31.70;39.81
71047;SHT31;58703;48.978;8.982;2023-07-08T08:51:43;31.80;39.46
71047;SHT31;58703;48.978;8.982;2023-07-08T08:54:10;31.88;39.67
71047;SHT31;58703;48.978;8.982;2023-07-08T08:59:42;30.94;41.09
71047;SHT31;58703;48.978;8.982;2023-07-08T09:04:58;30.46;41.23
71047;SHT31;58703;48.978;8.982;2023-07-08T09:07:28;30.66;41.12
71047;SHT31;58703;48.978;8.982;2023-07-08T09:10:06;30.59;41.15
71047;SHT31;58703;48.978;8.982;2023-07-08T09:12:34;30.73;40.95
71047;SHT31;58703;48.978;8.982;2023-07-08T09:15:10;30.58;40.52
71047;SHT31;58703;48.978;8.982;2023-07-08T09:17:36;31.14;39.51
71047;SHT31;58703;48.978;8.982;2023-07-08T09:20:25;31.24;39.60
71047;SHT31;58703;48.978;8.982;2023-07-08T09:23:11;31.99;38.65
71047;SHT31;58703;48.978;8.982;2023-07-08T09:25:58;30.28;40.11
71047;SHT31;58703;48.978;8.982;2023-07-08T09:28:43;30.07;40.83
71047;SHT31;58703;48.978;8.982;2023-07-08T09:31:31;30.02;41.05
71047;SHT31;58703;48.978;8.982;2023-07-08T09:34:10;31.35;39.22
71047;SHT31;58703;48.978;8.982;2023-07-08T09:36:42;32.56;37.91
71047;SHT31;58703;48.978;8.982;2023-07-08T09:39:16;33.13;36.56
71047;SHT31;58703;48.978;8.982;2023-07-08T09:41:46;34.02;36.64
71047;SHT31;58703;48.978;8.982;2023-07-08T09:44:25;34.86;35.29
71047;SHT31;58703;48.978;8.982;2023-07-08T09:46:53;34.12;36.03
71047;SHT31;58703;48.978;8.982;2023-07-08T09:51:51;33.14;36.91
71047;SHT31;58703;48.978;8.982;2023-07-08T09:54:18;33.78;36.01
71047;SHT31;58703;48.978;8.982;2023-07-08T09:56:54;33.69;36.01
71047;SHT31;58703;48.978;8.982;2023-07-08T09:59:23;33.28;36.40
71047;SHT31;58703;48.978;8.982;2023-07-08T10:01:50;33.37;36.14
71047;SHT31;58703;48.978;8.982;2023-07-08T10:04:19;33.61;36.35
71047;SHT31;58703;48.978;8.982;2023-07-08T10:06:46;32.66;37.36
71047;SHT31;58703;48.978;8.982;2023-07-08T10:09:20;32.48;37.33
71047;SHT31;58703;48.978;8.982;2023-07-08T10:11:56;32.79;37.14
71047;SHT31;58703;48.978;8.982;2023-07-08T10:14:32;33.99;35.76
71047;SHT31;58703;48.978;8.982;2023-07-08T10:16:59;34.87;34.62
71047;SHT31;58703;48.978;8.982;2023-07-08T10:19:25;34.05;35.49
71047;SHT31;58703;48.978;8.982;2023-07-08T10:30:07;34.32;35.26
71047;SHT31;58703;48.978;8.982;2023-07-08T10:33:00;33.61;35.98
71047;SHT31;58703;48.978;8.982;2023-07-08T10:35:36;33.47;36.31
71047;SHT31;58703;48.978;8.982;2023-07-08T10:41:21;32.70;37.67
71047;SHT31;58703;48.978;8.982;2023-07-08T10:58:13;32.05;39.41
71047;SHT31;58703;48.978;8.982;2023-07-08T11:01:14;34.02;37.50
71047;SHT31;58703;48.978;8.982;2023-07-08T11:06:40;33.61;36.95
71047;SHT31;58703;48.978;8.982;2023-07-08T11:09:12;34.49;36.09
71047;SHT31;58703;48.978;8.982;2023-07-08T11:12:04;34.49;35.70
71047;SHT31;58703;48.978;8.982;2023-07-08T11:20:43;34.84;35.49
71047;SHT31;58703;48.978;8.982;2023-07-08T11:23:26;33.86;36.34
71047;SHT31;58703;48.978;8.982;2023-07-08T11:26:07;34.86;35.56
71047;SHT31;58703;48.978;8.982;2023-07-08T11:28:36;34.70;36.20
71047;SHT31;58703;48.978;8.982;2023-07-08T11:31:03;35.01;35.27
71047;SHT31;58703;48.978;8.982;2023-07-08T11:33:32;33.95;37.28
71047;SHT31;58703;48.978;8.982;2023-07-08T11:36:00;33.28;36.90
71047;SHT31;58703;48.978;8.982;2023-07-08T11:38:26;33.28;36.92
71047;SHT31;58703;48.978;8.982;2023-07-08T11:41:11;33.13;37.27
71047;SHT31;58703;48.978;8.982;2023-07-08T11:43:45;35.28;34.72
71047;SHT31;58703;48.978;8.982;2023-07-08T11:46:15;36.57;33.23
71047;SHT31;58703;48.978;8.982;2023-07-08T11:48:52;36.16;33.72
71047;SHT31;58703;48.978;8.982;2023-07-08T11:51:24;36.90;33.15
71047;SHT31;58703;48.978;8.982;2023-07-08T11:53:58;37.27;32.82
71047;SHT31;58703;48.978;8.982;2023-07-08T11:56:27;36.70;33.76
71047;SHT31;58703;48.978;8.982;2023-07-08T11:59:09;37.00;33.65
71047;SHT31;58703;48.978;8.982;2023-07-08T12:01:40;35.20;34.83
71047;SHT31;58703;48.978;8.982;2023-07-08T12:04:29;31.84;39.35
71047;SHT31;58703;48.978;8.982;2023-07-08T12:07:12;31.68;39.85
71047;SHT31;58703;48.978;8.982;2023-07-08T12:09:58;32.53;38.36
71047;SHT31;58703;48.978;8.982;2023-07-08T12:12:33;33.99;36.99
71047;SHT31;58703;48.978;8.982;2023-07-08T12:15:10;35.34;35.29
71047;SHT31;58703;48.978;8.982;2023-07-08T12:17:40;35.34;34.48
71047;SHT31;58703;48.978;8.982;2023-07-08T12:20:24;36.00;33.38
71047;SHT31;58703;48.978;8.982;2023-07-08T12:22:51;35.61;34.14
71047;SHT31;58703;48.978;8.982;2023-07-08T12:25:20;35.93;33.41
71047;SHT31;58703;48.978;8.982;2023-07-08T12:27:47;35.28;33.93
71047;SHT31;58703;48.978;8.982;2023-07-08T12:30:14;34.39;35.54
71047;SHT31;58703;48.978;8.982;2023-07-08T12:32:40;35.89;34.41
71047;SHT31;58703;48.978;8.982;2023-07-08T12:35:22;34.56;36.29
71047;SHT31;58703;48.978;8.982;2023-07-08T12:37:48;33.78;36.98
71047;SHT31;58703;48.978;8.982;2023-07-08T12:40:14;33.76;37.35
71047;SHT31;58703;48.978;8.982;2023-07-08T12:42:40;32.59;38.77
71047;SHT31;58703;48.978;8.982;2023-07-08T12:45:17;33.94;36.61
71047;SHT31;58703;48.978;8.982;2023-07-08T12:47:46;33.41;37.31
71047;SHT31;58703;48.978;8.982;2023-07-08T12:50:12;33.40;37.72
71047;SHT31;58703;48.978;8.982;2023-07-08T12:52:40;34.04;36.95
71047;SHT31;58703;48.978;8.982;2023-07-08T12:55:09;34.12;36.33
71047;SHT31;58703;48.978;8.982;2023-07-08T12:57:37;34.91;35.55
71047;SHT31;58703;48.978;8.982;2023-07-08T13:00:04;35.77;34.86
71047;SHT31;58703;48.978;8.982;2023-07-08T13:02:31;35.07;34.41
71047;SHT31;58703;48.978;8.982;2023-07-08T13:05:00;35.14;35.06
71047;SHT31;58703;48.978;8.982;2023-07-08T13:07:41;35.44;34.21
71047;SHT31;58703;48.978;8.982;2023-07-08T13:10:17;35.72;33.82
71047;SHT31;58703;48.978;8.982;2023-07-08T13:12:44;37.48;32.56
71047;SHT31;58703;48.978;8.982;2023-07-08T13:15:23;37.49;31.89
71047;SHT31;58703;48.978;8.982;2023-07-08T13:17:51;36.54;32.33
71047;SHT31;58703;48.978;8.982;2023-07-08T13:20:18;37.81;30.92
71047;SHT31;58703;48.978;8.982;2023-07-08T13:22:53;37.38;31.45
71047;SHT31;58703;48.978;8.982;2023-07-08T13:25:20;39.41;30.10
71047;SHT31;58703;48.978;8.982;2023-07-08T13:28:02;41.49;28.34
71047;SHT31;58703;48.978;8.982;2023-07-08T13:30:30;40.44;28.87
71047;SHT31;58703;48.978;8.982;2023-07-08T13:32:58;39.51;28.92
71047;SHT31;58703;48.978;8.982;2023-07-08T13:35:34;37.72;30.61
71047;SHT31;58703;48.978;8.982;2023-07-08T13:38:01;37.11;31.84
71047;SHT31;58703;48.978;8.982;2023-07-08T13:40:32;35.54;33.00
71047;SHT31;58703;48.978;8.982;2023-07-08T13:42:58;35.92;33.22
71047;SHT31;58703;48.978;8.982;2023-07-08T13:45:32;33.94;34.61
71047;SHT31;58703;48.978;8.982;2023-07-08T13:48:08;34.32;34.17
71047;SHT31;58703;48.978;8.982;2023-07-08T13:50:44;35.61;32.91
71047;SHT31;58703;48.978;8.982;2023-07-08T13:53:26;36.97;31.50
71047;SHT31;58703;48.978;8.982;2023-07-08T13:56:07;38.27;30.20
71047;SHT31;58703;48.978;8.982;2023-07-08T13:58:33;37.78;30.91
71047;SHT31;58703;48.978;8.982;2023-07-08T14:00:59;39.65;28.78
71047;SHT31;58703;48.978;8.982;2023-07-08T14:03:24;40.15;28.52
71047;SHT31;58703;48.978;8.982;2023-07-08T14:05:51;40.86;27.79
71047;SHT31;58703;48.978;8.982;2023-07-08T14:08:18;40.92;27.61
71047;SHT31;58703;48.978;8.982;2023-07-08T14:10:45;36.64;31.71
71047;SHT31;58703;48.978;8.982;2023-07-08T14:13:11;37.13;31.60
71047;SHT31;58703;48.978;8.982;2023-07-08T14:15:38;38.37;29.83
71047;SHT31;58703;48.978;8.982;2023-07-08T14:18:04;39.19;29.09
71047;SHT31;58703;48.978;8.982;2023-07-08T14:20:30;40.47;28.54
71047;SHT31;58703;48.978;8.982;2023-07-08T14:22:56;40.26;28.64
71047;SHT31;58703;48.978;8.982;2023-07-08T14:25:22;41.32;27.37
71047;SHT31;58703;48.978;8.982;2023-07-08T14:27:50;39.61;28.51
71047;SHT31;58703;48.978;8.982;2023-07-08T14:30:16;38.93;29.35
71047;SHT31;58703;48.978;8.982;2023-07-08T14:32:42;37.96;30.24
71047;SHT31;58703;48.978;8.982;2023-07-08T14:37:38;39.01;29.15
71047;SHT31;58703;48.978;8.982;2023-07-08T14:40:35;38.36;30.23
71047;SHT31;58703;48.978;8.982;2023-07-08T14:43:10;38.41;29.78
71047;SHT31;58703;48.978;8.982;2023-07-08T14:45:40;37.92;30.03
71047;SHT31;58703;48.978;8.982;2023-07-08T14:48:10;38.02;29.68
71047;SHT31;58703;48.978;8.982;2023-07-08T14:50:37;39.21;28.97
71047;SHT31;58703;48.978;8.982;2023-07-08T14:53:02;40.00;28.04
71047;SHT31;58703;48.978;8.982;2023-07-08T14:55:28;40.97;27.66
71047;SHT31;58703;48.978;8.982;2023-07-08T14:57:56;43.52;25.76
71047;SHT31;58703;48.978;8.982;2023-07-08T15:00:22;43.16;26.06
71047;SHT31;58703;48.978;8.982;2023-07-08T15:02:49;41.85;26.73
71047;SHT31;58703;48.978;8.982;2023-07-08T15:05:19;41.89;26.71
71047;SHT31;58703;48.978;8.982;2023-07-08T15:07:53;39.24;29.04
71047;SHT31;58703;48.978;8.982;2023-07-08T15:10:27;39.31;28.88
71047;SHT31;58703;48.978;8.982;2023-07-08T15:12:53;41.19;27.71
71047;SHT31;58703;48.978;8.982;2023-07-08T15:15:33;38.97;28.84
71047;SHT31;58703;48.978;8.982;2023-07-08T15:18:01;39.24;29.00
71047;SHT31;58703;48.978;8.982;2023-07-08T15:20:31;38.81;29.39
71047;SHT31;58703;48.978;8.982;2023-07-08T15:22:58;36.46;31.63
71047;SHT31;58703;48.978;8.982;2023-07-08T15:25:26;39.19;29.23
71047;SHT31;58703;48.978;8.982;2023-07-08T15:27:53;38.66;29.59
71047;SHT31;58703;48.978;8.982;2023-07-08T15:30:25;39.86;29.00
71047;SHT31;58703;48.978;8.982;2023-07-08T15:32:53;39.52;28.50
71047;SHT31;58703;48.978;8.982;2023-07-08T15:35:27;39.79;28.57
71047;SHT31;58703;48.978;8.982;2023-07-08T15:37:59;40.20;27.88
71047;SHT31;58703;48.978;8.982;2023-07-08T15:40:32;42.48;25.98
71047;SHT31;58703;48.978;8.982;2023-07-08T15:43:01;41.90;26.92
71047;SHT31;58703;48.978;8.982;2023-07-08T15:45:35;41.24;27.27
71047;SHT31;58703;48.978;8.982;2023-07-08T15:48:04;40.78;27.61
71047;SHT31;58703;48.978;8.982;2023-07-08T15:50:31;40.51;27.92
71047;SHT31;58703;48.978;8.982;2023-07-08T15:52:58;40.48;27.55
71047;SHT31;58703;48.978;8.982;2023-07-08T15:55:29;42.86;26.33
71047;SHT31;58703;48.978;8.982;2023-07-08T15:58:01;40.71;27.44
71047;SHT31;58703;48.978;8.982;2023-07-08T16:00:32;39.27;28.89
71047;SHT31;58703;48.978;8.982;2023-07-08T16:03:03;40.05;27.80
71047;SHT31;58703;48.978;8.982;2023-07-08T16:05:31;40.39;27.34
71047;SHT31;58703;48.978;8.982;2023-07-08T16:08:01;41.28;26.64
71047;SHT31;58703;48.978;8.982;2023-07-08T16:10:30;42.53;25.30
71047;SHT31;58703;48.978;8.982;2023-07-08T16:12:58;42.70;25.63
71047;SHT31;58703;48.978;8.982;2023-07-08T16:15:31;40.02;27.51
71047;SHT31;58703;48.978;8.982;2023-07-08T16:17:59;39.55;27.66
71047;SHT31;58703;48.978;8.982;2023-07-08T16:20:27;40.50;26.94
71047;SHT31;58703;48.978;8.982;2023-07-08T16:22:55;40.44;27.14
71047;SHT31;58703;48.978;8.982;2023-07-08T16:25:29;38.44;29.36
71047;SHT31;58703;48.978;8.982;2023-07-08T16:27:55;38.32;29.29
71047;SHT31;58703;48.978;8.982;2023-07-08T16:30:22;38.34;28.80
71047;SHT31;58703;48.978;8.982;2023-07-08T16:32:49;38.36;28.88